Bunker, Utah
Current Conditions -  °F | °C
As of 8:50 AM on Thursday 27 Nov 2014 (Local Time) from KPVU Reporting Station
Overcast Overcast  
Wind Chill: 36°   Ceiling: 13000
Heat Index: 36°   Visibility: 15mi
Dew Point: 30°   Wind: 0mph
Humidity: 81%   Direction: NA
Pressure: 30.36"   Gusts: NA
Location:  40.2724°N, 111.717°W
Report Text: KPVU 271550Z 00000KT 15SM OVC130 02/M01 A3036
Loading
Personal Weather Stations






























Interactive Weather Map New forecast layout! Learn more

10-Day Weather Forecast

Advertisements
Track Severe Weather on mobile